createdAt,value
2022-10-22T00:04:18.932Z,12.82
2022-10-22T00:09:43.895Z,11.90
2022-10-22T00:15:08.610Z,14.38
2022-10-22T00:20:32.476Z,10.27
2022-10-22T00:25:57.507Z,13.63
2022-10-22T00:31:21.135Z,13.88
2022-10-22T00:36:44.850Z,12.15
2022-10-22T00:42:17.835Z,10.35
2022-10-22T00:47:45.552Z,8.77
2022-10-22T00:53:13.844Z,11.02
2022-10-22T00:58:42.237Z,11.85
2022-10-22T01:04:06.020Z,11.20
2022-10-22T01:09:36.112Z,10.88
2022-10-22T01:15:20.652Z,11.38
2022-10-22T01:21:07.859Z,16.67
2022-10-22T01:26:48.285Z,11.50
2022-10-22T01:32:18.449Z,8.93
2022-10-22T01:37:46.068Z,9.77
2022-10-22T01:43:12.337Z,10.77
2022-10-22T01:48:46.901Z,14.18
2022-10-22T01:54:21.791Z,11.65
2022-10-22T01:59:54.490Z,12.45
2022-10-22T02:05:23.998Z,12.25
2022-10-22T02:10:49.385Z,17.98
2022-10-22T02:16:16.919Z,20.48
2022-10-22T02:21:41.945Z,10.98
2022-10-22T02:27:12.104Z,12.05
2022-10-22T02:32:43.241Z,14.80
2022-10-22T02:38:09.193Z,12.50
2022-10-22T02:43:39.802Z,12.43
2022-10-22T02:49:03.500Z,10.40
2022-10-22T02:54:28.465Z,11.95
2022-10-22T02:59:52.032Z,11.18
2022-10-22T03:05:15.716Z,11.90
2022-10-22T03:10:40.653Z,17.45
2022-10-22T03:16:04.275Z,12.80
2022-10-22T03:21:32.896Z,12.65
2022-10-22T03:26:58.783Z,10.30
2022-10-22T03:32:22.385Z,10.40
2022-10-22T03:37:46.029Z,12.52
2022-10-22T03:43:11.086Z,16.15
2022-10-22T03:48:34.679Z,13.95
2022-10-22T03:53:58.285Z,15.32
2022-10-22T03:59:23.180Z,17.33
2022-10-22T04:04:46.720Z,14.10
2022-10-22T04:10:10.660Z,13.55
2022-10-22T04:15:35.808Z,21.35
2022-10-22T04:20:59.472Z,20.02
2022-10-22T04:26:23.355Z,18.65
2022-10-22T04:31:48.296Z,13.15
2022-10-22T04:37:11.828Z,12.05
2022-10-22T04:42:35.400Z,10.60
2022-10-22T04:48:00.335Z,12.38
2022-10-22T04:53:23.894Z,12.38
2022-10-22T04:58:48.319Z,16.73
2022-10-22T05:04:15.708Z,13.40
2022-10-22T05:09:39.425Z,13.38
2022-10-22T05:15:03.306Z,10.88
2022-10-22T05:20:28.258Z,13.40
2022-10-22T05:25:51.910Z,14.75
2022-10-22T05:31:15.878Z,14.90
2022-10-22T05:36:40.848Z,15.07
2022-10-22T05:42:04.774Z,13.30
2022-10-22T05:47:30.514Z,11.75
2022-10-22T05:52:55.452Z,12.77
2022-10-22T05:58:19.058Z,12.00
2022-10-22T06:03:46.138Z,18.95
2022-10-22T06:09:17.512Z,15.93
2022-10-22T06:14:41.057Z,11.02
2022-10-22T06:25:35.277Z,13.57
2022-10-22T06:30:59.754Z,17.27
2022-10-22T06:36:25.722Z,14.93
2022-10-22T06:41:50.830Z,15.32
2022-10-22T06:47:14.417Z,17.88
2022-10-22T06:52:37.983Z,11.88
2022-10-22T06:58:02.990Z,20.70
2022-10-22T07:03:26.579Z,13.85
2022-10-22T07:08:50.279Z,13.85
2022-10-22T07:14:15.833Z,12.45
2022-10-22T07:19:39.417Z,11.38
2022-10-22T07:25:06.551Z,10.88
2022-10-22T07:30:32.381Z,15.85
2022-10-22T07:35:59.167Z,12.68
2022-10-22T07:41:23.691Z,11.63
2022-10-22T07:46:49.105Z,14.10
2022-10-22T07:52:12.812Z,12.10
2022-10-22T07:57:37.013Z,13.32
2022-10-22T08:03:01.984Z,13.75
2022-10-22T08:08:29.672Z,11.35
2022-10-22T08:13:54.389Z,10.73
2022-10-22T08:19:21.233Z,13.50
2022-10-22T08:24:44.866Z,11.75
2022-10-22T08:30:09.518Z,13.77
2022-10-22T08:35:34.489Z,12.00
2022-10-22T08:41:07.194Z,10.02
2022-10-22T08:46:43.921Z,11.98
2022-10-22T08:52:13.633Z,10.82
2022-10-22T08:57:52.396Z,12.07
2022-10-22T09:03:32.718Z,15.35
2022-10-22T09:08:59.644Z,19.83
2022-10-22T09:14:25.901Z,16.17
2022-10-22T09:20:01.570Z,14.80
2022-10-22T09:25:29.167Z,15.82
2022-10-22T09:30:53.245Z,16.98
2022-10-22T09:36:18.432Z,13.70
2022-10-22T09:41:43.683Z,14.55
2022-10-22T09:47:08.459Z,15.43
2022-10-22T09:52:35.362Z,14.13
2022-10-22T09:58:01.651Z,14.95
2022-10-22T10:03:27.843Z,22.30
2022-10-22T10:08:51.934Z,17.17
2022-10-22T10:14:22.657Z,15.63
2022-10-22T10:25:35.162Z,23.35
2022-10-22T10:31:11.642Z,18.00
2022-10-22T10:36:43.788Z,15.60
2022-10-22T10:42:22.916Z,19.75
2022-10-22T10:48:14.541Z,18.65
2022-10-22T10:53:48.987Z,25.02
2022-10-22T10:59:18.683Z,19.98
2022-10-22T11:04:58.636Z,21.88
2022-10-22T11:10:29.706Z,19.50
2022-10-22T11:15:58.858Z,21.30
2022-10-22T11:21:28.278Z,28.65
2022-10-22T11:26:56.679Z,30.25
2022-10-22T11:32:22.033Z,39.92
2022-10-22T11:37:48.589Z,32.15
2022-10-22T11:43:26.454Z,23.70
2022-10-22T11:49:03.827Z,25.15
2022-10-22T11:54:43.288Z,26.88
2022-10-22T12:00:22.240Z,16.42
2022-10-22T12:05:46.954Z,21.02
2022-10-22T12:11:18.461Z,19.85
2022-10-22T12:17:01.230Z,20.98
2022-10-22T12:22:28.535Z,20.58
2022-10-22T12:27:55.004Z,19.65
2022-10-22T12:33:22.124Z,21.42
2022-10-22T12:38:48.191Z,18.80
2022-10-22T12:44:16.050Z,18.85
2022-10-22T12:49:43.807Z,19.25
2022-10-22T12:55:08.555Z,24.58
2022-10-22T13:00:35.914Z,24.05
2022-10-22T13:06:13.157Z,20.38
2022-10-22T13:11:41.370Z,18.13
2022-10-22T13:17:09.378Z,25.10
2022-10-22T13:22:36.306Z,24.80
2022-10-22T13:28:02.352Z,23.50
2022-10-22T13:33:31.458Z,22.90
2022-10-22T13:38:55.148Z,22.38
2022-10-22T13:44:19.687Z,20.35
2022-10-22T13:49:46.831Z,19.23
2022-10-22T13:55:19.590Z,17.42
2022-10-22T14:00:46.556Z,21.55
2022-10-22T14:06:15.482Z,27.25
2022-10-22T14:11:39.607Z,16.00
2022-10-22T14:17:03.322Z,16.38
2022-10-22T14:22:29.521Z,18.77
2022-10-22T14:27:53.318Z,21.58
2022-10-22T14:33:19.630Z,20.65
2022-10-22T14:38:47.927Z,17.55
2022-10-22T14:44:14.348Z,17.92
2022-10-22T14:49:38.343Z,14.15
2022-10-22T14:55:03.425Z,18.35
2022-10-22T15:00:27.255Z,17.77
2022-10-22T15:05:55.805Z,14.95
2022-10-22T15:11:22.167Z,19.63
2022-10-22T15:16:45.809Z,20.70
2022-10-22T15:22:09.561Z,17.85
2022-10-22T15:27:35.122Z,15.60
2022-10-22T15:32:59.386Z,18.65
2022-10-22T15:38:23.581Z,20.55
2022-10-22T15:43:48.997Z,20.15
2022-10-22T15:49:13.231Z,16.67
2022-10-22T15:54:37.199Z,18.00
2022-10-22T16:00:02.465Z,19.17
2022-10-22T16:05:35.877Z,20.25
2022-10-22T16:10:59.623Z,20.15
2022-10-22T16:16:26.316Z,22.80
2022-10-22T16:21:51.509Z,28.25
2022-10-22T16:27:15.609Z,29.00
2022-10-22T16:32:40.861Z,32.75
2022-10-22T16:38:04.681Z,35.30
2022-10-22T16:43:30.092Z,27.08
2022-10-22T16:48:55.310Z,30.35
2022-10-22T16:54:19.292Z,26.10
2022-10-22T16:59:43.402Z,26.42
2022-10-22T17:05:09.245Z,21.92
2022-10-22T17:10:32.894Z,27.50
2022-10-22T17:16:02.385Z,23.10
2022-10-22T17:21:27.559Z,28.27
2022-10-22T17:26:51.304Z,28.38
2022-10-22T17:32:14.996Z,23.95
2022-10-22T17:37:40.305Z,23.67
2022-10-22T17:43:04.173Z,26.52
2022-10-22T17:48:27.747Z,27.48
2022-10-22T17:53:52.761Z,30.85
2022-10-22T17:59:17.850Z,27.85
2022-10-22T18:04:41.438Z,34.53
2022-10-22T18:10:07.813Z,32.72
2022-10-22T18:15:33.571Z,35.40
2022-10-22T18:20:58.621Z,32.67
2022-10-22T18:26:26.876Z,28.33
2022-10-22T18:31:52.492Z,31.70
2022-10-22T18:37:16.130Z,33.10
2022-10-22T18:42:41.350Z,29.52
2022-10-22T18:48:05.692Z,30.83
2022-10-22T18:53:29.548Z,33.50
2022-10-22T18:58:54.860Z,32.83
2022-10-22T19:04:18.488Z,29.80
2022-10-22T19:09:43.325Z,28.77
2022-10-22T19:15:09.219Z,34.47
2022-10-22T19:20:32.892Z,33.33
2022-10-22T19:26:04.858Z,38.80
2022-10-22T19:31:31.381Z,36.03
2022-10-22T19:36:55.139Z,34.60
2022-10-22T19:42:19.015Z,39.33
2022-10-22T19:47:43.977Z,39.47
2022-10-22T19:53:10.351Z,38.03
2022-10-22T19:58:34.447Z,33.78
2022-10-22T20:04:00.282Z,41.13
2022-10-22T20:09:23.964Z,38.25
2022-10-22T20:14:47.694Z,44.97
2022-10-22T20:20:12.696Z,38.80
2022-10-22T20:25:36.290Z,48.33
2022-10-22T20:31:00.087Z,49.28
2022-10-22T20:36:25.643Z,42.80
2022-10-22T20:41:51.518Z,43.92
2022-10-22T20:47:15.152Z,42.67
2022-10-22T20:52:40.215Z,40.88
2022-10-22T20:58:04.175Z,44.70
2022-10-22T21:03:27.954Z,42.85
2022-10-22T21:08:53.503Z,38.90
2022-10-22T21:14:20.266Z,37.90
2022-10-22T21:19:43.835Z,47.33
2022-10-22T21:25:09.806Z,40.30
2022-10-22T21:30:33.848Z,46.25
2022-10-22T21:35:58.043Z,41.17
2022-10-22T21:41:24.843Z,45.85
2022-10-22T21:46:48.417Z,46.22
2022-10-22T21:52:12.403Z,47.17
2022-10-22T21:57:37.386Z,54.60
2022-10-22T22:03:01.135Z,51.67
2022-10-22T22:08:24.732Z,49.30
2022-10-22T22:13:50.048Z,56.90
2022-10-22T22:19:13.705Z,65.72
2022-10-22T22:24:39.740Z,54.50
2022-10-22T22:30:05.357Z,50.05
2022-10-22T22:35:29.109Z,59.08
2022-10-22T22:40:52.800Z,64.38
2022-10-22T22:46:17.789Z,65.35
2022-10-22T22:51:41.363Z,67.18
2022-10-22T22:57:05.083Z,64.10
2022-10-22T23:02:30.066Z,69.50
2022-10-22T23:07:53.647Z,72.70
2022-10-22T23:13:17.232Z,73.45
2022-10-22T23:18:42.570Z,66.00
2022-10-22T23:24:08.800Z,67.65
2022-10-22T23:29:34.281Z,62.67
2022-10-22T23:34:59.396Z,72.95
2022-10-22T23:40:23.102Z,59.45
2022-10-22T23:45:46.820Z,57.22
2022-10-22T23:51:13.881Z,54.40
2022-10-22T23:56:37.660Z,68.55
